sensor_id;sensor_type;location;lat;lon;timestamp;P1;durP1;ratioP1;P2;durP2;ratioP2
43803;SDS011;29430;52.924;-2.388;2022-08-06T00:02:19;6.50;;;4.07;;
43803;SDS011;29430;52.924;-2.388;2022-08-06T00:07:19;7.70;;;4.95;;
43803;SDS011;29430;52.924;-2.388;2022-08-06T00:12:16;6.90;;;3.97;;
43803;SDS011;29430;52.924;-2.388;2022-08-06T00:17:09;8.77;;;5.07;;
43803;SDS011;29430;52.924;-2.388;2022-08-06T00:22:03;6.45;;;4.38;;
43803;SDS011;29430;52.924;-2.388;2022-08-06T00:26:55;6.75;;;4.85;;
43803;SDS011;29430;52.924;-2.388;2022-08-06T00:31:56;8.55;;;5.78;;
43803;SDS011;29430;52.924;-2.388;2022-08-06T00:36:48;9.30;;;5.95;;
43803;SDS011;29430;52.924;-2.388;2022-08-06T00:41:40;7.18;;;4.47;;
43803;SDS011;29430;52.924;-2.388;2022-08-06T00:46:37;9.00;;;5.45;;
43803;SDS011;29430;52.924;-2.388;2022-08-06T00:51:29;8.27;;;6.07;;
43803;SDS011;29430;52.924;-2.388;2022-08-06T00:56:41;7.82;;;5.05;;
43803;SDS011;29430;52.924;-2.388;2022-08-06T01:01:35;8.32;;;5.60;;
43803;SDS011;29430;52.924;-2.388;2022-08-06T01:06:41;8.38;;;5.47;;
43803;SDS011;29430;52.924;-2.388;2022-08-06T01:11:48;9.32;;;5.95;;
43803;SDS011;29430;52.924;-2.388;2022-08-06T01:16:57;9.40;;;5.60;;
43803;SDS011;29430;52.924;-2.388;2022-08-06T01:22:11;8.82;;;5.43;;
43803;SDS011;29430;52.924;-2.388;2022-08-06T01:27:33;10.48;;;5.78;;
43803;SDS011;29430;52.924;-2.388;2022-08-06T01:32:38;8.20;;;6.25;;
43803;SDS011;29430;52.924;-2.388;2022-08-06T01:38:10;9.98;;;6.65;;
43803;SDS011;29430;52.924;-2.388;2022-08-06T01:43:09;11.77;;;6.35;;
43803;SDS011;29430;52.924;-2.388;2022-08-06T01:48:14;6.60;;;5.18;;
43803;SDS011;29430;52.924;-2.388;2022-08-06T01:53:11;9.85;;;6.57;;
43803;SDS011;29430;52.924;-2.388;2022-08-06T01:58:25;9.65;;;6.43;;
43803;SDS011;29430;52.924;-2.388;2022-08-06T02:13:44;6.03;;;4.28;;
43803;SDS011;29430;52.924;-2.388;2022-08-06T02:18:39;9.80;;;5.28;;
43803;SDS011;29430;52.924;-2.388;2022-08-06T02:23:35;8.07;;;5.43;;
43803;SDS011;29430;52.924;-2.388;2022-08-06T02:28:28;10.73;;;5.18;;
43803;SDS011;29430;52.924;-2.388;2022-08-06T02:33:22;6.45;;;4.22;;
43803;SDS011;29430;52.924;-2.388;2022-08-06T02:38:36;9.55;;;5.50;;
43803;SDS011;29430;52.924;-2.388;2022-08-06T02:43:46;9.38;;;5.78;;
43803;SDS011;29430;52.924;-2.388;2022-08-06T02:48:44;7.45;;;4.70;;
43803;SDS011;29430;52.924;-2.388;2022-08-06T02:54:03;7.00;;;3.92;;
43803;SDS011;29430;52.924;-2.388;2022-08-06T02:59:07;8.55;;;4.80;;
43803;SDS011;29430;52.924;-2.388;2022-08-06T03:04:01;7.93;;;4.97;;
43803;SDS011;29430;52.924;-2.388;2022-08-06T03:08:59;8.83;;;5.53;;
43803;SDS011;29430;52.924;-2.388;2022-08-06T03:13:52;9.73;;;4.88;;
43803;SDS011;29430;52.924;-2.388;2022-08-06T03:18:47;7.45;;;4.90;;
43803;SDS011;29430;52.924;-2.388;2022-08-06T03:24:01;8.63;;;4.85;;
43803;SDS011;29430;52.924;-2.388;2022-08-06T03:28:55;8.45;;;5.47;;
43803;SDS011;29430;52.924;-2.388;2022-08-06T03:33:47;9.07;;;5.15;;
43803;SDS011;29430;52.924;-2.388;2022-08-06T03:38:49;8.63;;;4.65;;
43803;SDS011;29430;52.924;-2.388;2022-08-06T03:43:46;7.35;;;4.00;;
43803;SDS011;29430;52.924;-2.388;2022-08-06T03:48:54;10.00;;;5.22;;
43803;SDS011;29430;52.924;-2.388;2022-08-06T03:53:49;7.65;;;3.75;;
43803;SDS011;29430;52.924;-2.388;2022-08-06T03:58:44;9.30;;;4.60;;
43803;SDS011;29430;52.924;-2.388;2022-08-06T04:03:38;5.30;;;3.35;;
43803;SDS011;29430;52.924;-2.388;2022-08-06T04:08:32;5.93;;;3.63;;
43803;SDS011;29430;52.924;-2.388;2022-08-06T04:13:27;6.15;;;2.65;;
43803;SDS011;29430;52.924;-2.388;2022-08-06T04:18:40;9.95;;;4.32;;
43803;SDS011;29430;52.924;-2.388;2022-08-06T04:23:39;10.27;;;5.30;;
43803;SDS011;29430;52.924;-2.388;2022-08-06T04:28:37;7.47;;;5.15;;
43803;SDS011;29430;52.924;-2.388;2022-08-06T04:33:35;8.85;;;5.05;;
43803;SDS011;29430;52.924;-2.388;2022-08-06T04:38:29;9.55;;;4.82;;
43803;SDS011;29430;52.924;-2.388;2022-08-06T04:43:21;7.63;;;4.68;;
43803;SDS011;29430;52.924;-2.388;2022-08-06T04:48:29;7.85;;;4.25;;
43803;SDS011;29430;52.924;-2.388;2022-08-06T04:53:35;9.23;;;5.22;;
43803;SDS011;29430;52.924;-2.388;2022-08-06T04:58:47;8.60;;;5.40;;
43803;SDS011;29430;52.924;-2.388;2022-08-06T05:03:39;9.38;;;5.53;;
43803;SDS011;29430;52.924;-2.388;2022-08-06T05:08:53;6.20;;;3.88;;
43803;SDS011;29430;52.924;-2.388;2022-08-06T05:18:53;7.88;;;4.18;;
43803;SDS011;29430;52.924;-2.388;2022-08-06T05:24:08;7.53;;;4.80;;
43803;SDS011;29430;52.924;-2.388;2022-08-06T05:29:00;8.38;;;5.05;;
43803;SDS011;29430;52.924;-2.388;2022-08-06T05:33:53;12.23;;;5.75;;
43803;SDS011;29430;52.924;-2.388;2022-08-06T05:38:45;9.90;;;5.55;;
43803;SDS011;29430;52.924;-2.388;2022-08-06T05:43:49;8.48;;;4.72;;
43803;SDS011;29430;52.924;-2.388;2022-08-06T05:49:12;6.22;;;5.05;;
43803;SDS011;29430;52.924;-2.388;2022-08-06T05:59:25;11.20;;;4.68;;
43803;SDS011;29430;52.924;-2.388;2022-08-06T06:04:39;4.53;;;3.50;;
43803;SDS011;29430;52.924;-2.388;2022-08-06T06:09:52;7.63;;;4.30;;
43803;SDS011;29430;52.924;-2.388;2022-08-06T06:14:54;8.80;;;4.57;;
43803;SDS011;29430;52.924;-2.388;2022-08-06T06:30:57;6.90;;;3.25;;
43803;SDS011;29430;52.924;-2.388;2022-08-06T06:36:04;6.00;;;2.88;;
43803;SDS011;29430;52.924;-2.388;2022-08-06T06:56:48;3.97;;;2.30;;
43803;SDS011;29430;52.924;-2.388;2022-08-06T07:01:47;5.53;;;2.67;;
43803;SDS011;29430;52.924;-2.388;2022-08-06T07:06:45;5.28;;;2.65;;
43803;SDS011;29430;52.924;-2.388;2022-08-06T07:11:48;5.63;;;3.45;;
43803;SDS011;29430;52.924;-2.388;2022-08-06T07:16:54;4.63;;;2.80;;
43803;SDS011;29430;52.924;-2.388;2022-08-06T07:21:48;7.38;;;2.90;;
43803;SDS011;29430;52.924;-2.388;2022-08-06T07:26:43;4.75;;;3.03;;
43803;SDS011;29430;52.924;-2.388;2022-08-06T07:31:41;5.93;;;3.17;;
43803;SDS011;29430;52.924;-2.388;2022-08-06T07:36:36;7.20;;;2.45;;
43803;SDS011;29430;52.924;-2.388;2022-08-06T07:41:30;5.93;;;2.83;;
43803;SDS011;29430;52.924;-2.388;2022-08-06T07:46:44;4.72;;;2.20;;
43803;SDS011;29430;52.924;-2.388;2022-08-06T07:51:43;3.78;;;2.47;;
43803;SDS011;29430;52.924;-2.388;2022-08-06T07:56:37;4.30;;;2.40;;
43803;SDS011;29430;52.924;-2.388;2022-08-06T08:01:51;4.00;;;2.42;;
43803;SDS011;29430;52.924;-2.388;2022-08-06T08:06:43;6.70;;;2.08;;
43803;SDS011;29430;52.924;-2.388;2022-08-06T08:11:39;2.90;;;1.67;;
43803;SDS011;29430;52.924;-2.388;2022-08-06T08:16:52;4.85;;;2.17;;
43803;SDS011;29430;52.924;-2.388;2022-08-06T08:21:44;5.55;;;2.30;;
43803;SDS011;29430;52.924;-2.388;2022-08-06T08:26:36;4.72;;;2.55;;
43803;SDS011;29430;52.924;-2.388;2022-08-06T08:31:48;5.18;;;2.35;;
43803;SDS011;29430;52.924;-2.388;2022-08-06T08:36:50;5.20;;;1.85;;
43803;SDS011;29430;52.924;-2.388;2022-08-06T08:41:49;4.05;;;2.17;;
43803;SDS011;29430;52.924;-2.388;2022-08-06T08:46:44;5.00;;;1.60;;
43803;SDS011;29430;52.924;-2.388;2022-08-06T08:51:48;4.07;;;1.15;;
43803;SDS011;29430;52.924;-2.388;2022-08-06T08:56:42;4.72;;;1.10;;
43803;SDS011;29430;52.924;-2.388;2022-08-06T09:01:56;3.67;;;1.33;;
43803;SDS011;29430;52.924;-2.388;2022-08-06T09:06:48;4.13;;;1.73;;
43803;SDS011;29430;52.924;-2.388;2022-08-06T09:11:43;4.72;;;2.17;;
43803;SDS011;29430;52.924;-2.388;2022-08-06T09:16:57;3.90;;;1.52;;
43803;SDS011;29430;52.924;-2.388;2022-08-06T09:21:50;2.65;;;1.20;;
43803;SDS011;29430;52.924;-2.388;2022-08-06T09:37:58;5.50;;;1.40;;
43803;SDS011;29430;52.924;-2.388;2022-08-06T09:42:52;4.97;;;1.30;;
43803;SDS011;29430;52.924;-2.388;2022-08-06T09:47:44;4.78;;;1.55;;
43803;SDS011;29430;52.924;-2.388;2022-08-06T09:53:01;3.80;;;1.15;;
43803;SDS011;29430;52.924;-2.388;2022-08-06T09:58:05;3.10;;;0.82;;
43803;SDS011;29430;52.924;-2.388;2022-08-06T10:02:57;2.83;;;0.90;;
43803;SDS011;29430;52.924;-2.388;2022-08-06T10:08:14;3.03;;;0.80;;
43803;SDS011;29430;52.924;-2.388;2022-08-06T10:13:16;4.07;;;0.80;;
43803;SDS011;29430;52.924;-2.388;2022-08-06T10:18:10;2.83;;;0.85;;
43803;SDS011;29430;52.924;-2.388;2022-08-06T10:23:40;4.07;;;0.80;;
43803;SDS011;29430;52.924;-2.388;2022-08-06T10:28:44;2.35;;;0.80;;
43803;SDS011;29430;52.924;-2.388;2022-08-06T10:38:49;3.65;;;1.70;;
43803;SDS011;29430;52.924;-2.388;2022-08-06T10:43:43;2.35;;;0.70;;
43803;SDS011;29430;52.924;-2.388;2022-08-06T10:48:39;2.00;;;0.65;;
43803;SDS011;29430;52.924;-2.388;2022-08-06T10:53:51;2.60;;;0.70;;
43803;SDS011;29430;52.924;-2.388;2022-08-06T10:58:59;2.90;;;0.60;;
43803;SDS011;29430;52.924;-2.388;2022-08-06T11:03:58;2.03;;;0.63;;
43803;SDS011;29430;52.924;-2.388;2022-08-06T11:14:46;3.53;;;0.60;;
43803;SDS011;29430;52.924;-2.388;2022-08-06T11:24:50;4.07;;;0.60;;
43803;SDS011;29430;52.924;-2.388;2022-08-06T11:30:06;2.53;;;0.70;;
43803;SDS011;29430;52.924;-2.388;2022-08-06T11:35:37;2.03;;;0.60;;
43803;SDS011;29430;52.924;-2.388;2022-08-06T11:51:42;1.15;;;0.50;;
43803;SDS011;29430;52.924;-2.388;2022-08-06T12:02:05;3.15;;;0.60;;
43803;SDS011;29430;52.924;-2.388;2022-08-06T12:17:19;3.42;;;0.55;;
43803;SDS011;29430;52.924;-2.388;2022-08-06T12:22:12;2.83;;;0.60;;
43803;SDS011;29430;52.924;-2.388;2022-08-06T12:27:08;1.95;;;0.60;;
43803;SDS011;29430;52.924;-2.388;2022-08-06T12:37:35;1.30;;;0.40;;
43803;SDS011;29430;52.924;-2.388;2022-08-06T12:42:41;4.85;;;0.57;;
43803;SDS011;29430;52.924;-2.388;2022-08-06T12:47:55;2.13;;;0.50;;
43803;SDS011;29430;52.924;-2.388;2022-08-06T12:53:05;1.30;;;0.47;;
43803;SDS011;29430;52.924;-2.388;2022-08-06T12:58:02;1.58;;;0.40;;
43803;SDS011;29430;52.924;-2.388;2022-08-06T13:03:03;1.77;;;0.50;;
43803;SDS011;29430;52.924;-2.388;2022-08-06T13:07:58;1.73;;;0.50;;
43803;SDS011;29430;52.924;-2.388;2022-08-06T13:13:00;2.33;;;0.50;;
43803;SDS011;29430;52.924;-2.388;2022-08-06T13:18:15;2.50;;;0.50;;
43803;SDS011;29430;52.924;-2.388;2022-08-06T13:23:32;2.88;;;0.60;;
43803;SDS011;29430;52.924;-2.388;2022-08-06T13:28:27;4.32;;;0.60;;
43803;SDS011;29430;52.924;-2.388;2022-08-06T13:33:23;1.90;;;0.50;;
43803;SDS011;29430;52.924;-2.388;2022-08-06T13:38:29;1.48;;;0.60;;
43803;SDS011;29430;52.924;-2.388;2022-08-06T13:48:45;1.95;;;0.50;;
43803;SDS011;29430;52.924;-2.388;2022-08-06T13:53:39;4.88;;;0.65;;
43803;SDS011;29430;52.924;-2.388;2022-08-06T13:58:39;2.17;;;0.55;;
43803;SDS011;29430;52.924;-2.388;2022-08-06T14:03:35;3.60;;;0.60;;
43803;SDS011;29430;52.924;-2.388;2022-08-06T14:08:28;1.80;;;0.60;;
43803;SDS011;29430;52.924;-2.388;2022-08-06T14:13:26;2.42;;;0.50;;
43803;SDS011;29430;52.924;-2.388;2022-08-06T14:18:19;2.92;;;0.80;;
43803;SDS011;29430;52.924;-2.388;2022-08-06T14:23:18;3.30;;;0.50;;
43803;SDS011;29430;52.924;-2.388;2022-08-06T14:28:13;2.55;;;0.43;;
43803;SDS011;29430;52.924;-2.388;2022-08-06T14:33:07;5.68;;;0.98;;
43803;SDS011;29430;52.924;-2.388;2022-08-06T14:38:17;1.75;;;0.40;;
43803;SDS011;29430;52.924;-2.388;2022-08-06T14:43:10;2.33;;;0.50;;
43803;SDS011;29430;52.924;-2.388;2022-08-06T14:48:23;2.38;;;0.50;;
43803;SDS011;29430;52.924;-2.388;2022-08-06T14:53:21;1.75;;;0.40;;
43803;SDS011;29430;52.924;-2.388;2022-08-06T14:58:21;1.95;;;0.30;;
43803;SDS011;29430;52.924;-2.388;2022-08-06T15:03:20;3.78;;;0.40;;
43803;SDS011;29430;52.924;-2.388;2022-08-06T15:08:18;4.32;;;0.35;;
43803;SDS011;29430;52.924;-2.388;2022-08-06T15:13:09;3.15;;;0.30;;
43803;SDS011;29430;52.924;-2.388;2022-08-06T15:18:01;1.50;;;0.40;;
43803;SDS011;29430;52.924;-2.388;2022-08-06T15:23:11;1.13;;;0.30;;
43803;SDS011;29430;52.924;-2.388;2022-08-06T15:28:02;2.55;;;0.30;;
43803;SDS011;29430;52.924;-2.388;2022-08-06T15:32:55;4.88;;;0.30;;
43803;SDS011;29430;52.924;-2.388;2022-08-06T15:37:49;3.45;;;0.20;;
43803;SDS011;29430;52.924;-2.388;2022-08-06T15:42:48;2.38;;;0.20;;
43803;SDS011;29430;52.924;-2.388;2022-08-06T15:47:40;1.48;;;0.30;;
43803;SDS011;29430;52.924;-2.388;2022-08-06T15:52:35;2.35;;;0.20;;
43803;SDS011;29430;52.924;-2.388;2022-08-06T15:57:34;1.90;;;0.20;;
43803;SDS011;29430;52.924;-2.388;2022-08-06T16:02:46;2.03;;;0.20;;
43803;SDS011;29430;52.924;-2.388;2022-08-06T16:07:41;1.92;;;0.20;;
43803;SDS011;29430;52.924;-2.388;2022-08-06T16:12:47;2.28;;;0.20;;
43803;SDS011;29430;52.924;-2.388;2022-08-06T16:17:42;2.20;;;0.20;;
43803;SDS011;29430;52.924;-2.388;2022-08-06T16:22:54;1.00;;;0.13;;
43803;SDS011;29430;52.924;-2.388;2022-08-06T16:27:46;4.15;;;0.20;;
43803;SDS011;29430;52.924;-2.388;2022-08-06T16:32:39;1.05;;;0.20;;
43803;SDS011;29430;52.924;-2.388;2022-08-06T16:37:35;2.10;;;0.20;;
43803;SDS011;29430;52.924;-2.388;2022-08-06T16:42:30;1.70;;;0.20;;
43803;SDS011;29430;52.924;-2.388;2022-08-06T16:47:22;0.70;;;0.10;;
43803;SDS011;29430;52.924;-2.388;2022-08-06T16:52:13;0.88;;;0.20;;
43803;SDS011;29430;52.924;-2.388;2022-08-06T16:57:25;0.70;;;0.20;;
43803;SDS011;29430;52.924;-2.388;2022-08-06T17:02:27;1.23;;;0.30;;
43803;SDS011;29430;52.924;-2.388;2022-08-06T17:07:32;1.38;;;0.20;;
43803;SDS011;29430;52.924;-2.388;2022-08-06T17:12:45;2.10;;;0.30;;
43803;SDS011;29430;52.924;-2.388;2022-08-06T17:17:48;0.57;;;0.20;;
43803;SDS011;29430;52.924;-2.388;2022-08-06T17:22:40;0.90;;;0.20;;
43803;SDS011;29430;52.924;-2.388;2022-08-06T17:27:36;0.90;;;0.20;;
43803;SDS011;29430;52.924;-2.388;2022-08-06T17:32:47;3.35;;;0.28;;
43803;SDS011;29430;52.924;-2.388;2022-08-06T17:37:45;2.75;;;0.20;;
43803;SDS011;29430;52.924;-2.388;2022-08-06T17:42:41;1.63;;;0.20;;
43803;SDS011;29430;52.924;-2.388;2022-08-06T17:47:37;1.40;;;0.20;;
43803;SDS011;29430;52.924;-2.388;2022-08-06T17:52:42;2.17;;;0.20;;
43803;SDS011;29430;52.924;-2.388;2022-08-06T17:57:38;1.63;;;0.10;;
43803;SDS011;29430;52.924;-2.388;2022-08-06T18:02:50;0.93;;;0.20;;
43803;SDS011;29430;52.924;-2.388;2022-08-06T18:07:43;2.05;;;0.20;;
43803;SDS011;29430;52.924;-2.388;2022-08-06T18:12:55;1.00;;;0.30;;
43803;SDS011;29430;52.924;-2.388;2022-08-06T18:17:51;3.30;;;0.40;;
43803;SDS011;29430;52.924;-2.388;2022-08-06T18:27:53;1.25;;;0.60;;
43803;SDS011;29430;52.924;-2.388;2022-08-06T18:32:47;38.55;;;22.88;;
43803;SDS011;29430;52.924;-2.388;2022-08-06T18:37:42;9.57;;;5.13;;
43803;SDS011;29430;52.924;-2.388;2022-08-06T18:42:54;11.27;;;4.00;;
43803;SDS011;29430;52.924;-2.388;2022-08-06T18:47:47;2.10;;;0.30;;
43803;SDS011;29430;52.924;-2.388;2022-08-06T18:52:43;1.17;;;0.10;;
43803;SDS011;29430;52.924;-2.388;2022-08-06T18:57:35;1.30;;;0.20;;
43803;SDS011;29430;52.924;-2.388;2022-08-06T19:02:46;1.20;;;0.10;;
43803;SDS011;29430;52.924;-2.388;2022-08-06T19:07:39;0.63;;;0.10;;
43803;SDS011;29430;52.924;-2.388;2022-08-06T19:12:40;0.30;;;0.10;;
43803;SDS011;29430;52.924;-2.388;2022-08-06T19:17:32;0.85;;;0.10;;
43803;SDS011;29430;52.924;-2.388;2022-08-06T19:22:44;0.50;;;0.10;;
43803;SDS011;29430;52.924;-2.388;2022-08-06T19:27:43;0.52;;;0.10;;
43803;SDS011;29430;52.924;-2.388;2022-08-06T19:32:55;0.90;;;0.10;;
43803;SDS011;29430;52.924;-2.388;2022-08-06T19:37:48;0.60;;;0.10;;
43803;SDS011;29430;52.924;-2.388;2022-08-06T19:42:50;2.28;;;0.10;;
43803;SDS011;29430;52.924;-2.388;2022-08-06T19:48:02;0.52;;;0.10;;
43803;SDS011;29430;52.924;-2.388;2022-08-06T19:52:55;0.35;;;0.20;;
43803;SDS011;29430;52.924;-2.388;2022-08-06T19:57:47;0.40;;;0.10;;
43803;SDS011;29430;52.924;-2.388;2022-08-06T20:02:39;2.60;;;0.22;;
43803;SDS011;29430;52.924;-2.388;2022-08-06T20:07:43;0.70;;;0.20;;
43803;SDS011;29430;52.924;-2.388;2022-08-06T20:12:55;1.10;;;0.20;;
43803;SDS011;29430;52.924;-2.388;2022-08-06T20:17:48;0.43;;;0.10;;
43803;SDS011;29430;52.924;-2.388;2022-08-06T20:22:41;1.48;;;0.17;;
43803;SDS011;29430;52.924;-2.388;2022-08-06T20:27:34;0.35;;;0.10;;
43803;SDS011;29430;52.924;-2.388;2022-08-06T20:32:46;0.47;;;0.17;;
43803;SDS011;29430;52.924;-2.388;2022-08-06T20:37:44;0.20;;;0.10;;
43803;SDS011;29430;52.924;-2.388;2022-08-06T20:42:45;0.40;;;0.10;;
43803;SDS011;29430;52.924;-2.388;2022-08-06T20:47:38;0.90;;;0.20;;
43803;SDS011;29430;52.924;-2.388;2022-08-06T20:52:47;0.47;;;0.10;;
43803;SDS011;29430;52.924;-2.388;2022-08-06T20:57:40;1.40;;;0.20;;
43803;SDS011;29430;52.924;-2.388;2022-08-06T21:02:38;0.55;;;0.10;;
43803;SDS011;29430;52.924;-2.388;2022-08-06T21:07:33;0.25;;;0.10;;
43803;SDS011;29430;52.924;-2.388;2022-08-06T21:12:28;2.08;;;0.10;;
43803;SDS011;29430;52.924;-2.388;2022-08-06T21:17:20;0.40;;;0.10;;
43803;SDS011;29430;52.924;-2.388;2022-08-06T21:22:25;0.50;;;0.10;;
43803;SDS011;29430;52.924;-2.388;2022-08-06T21:27:20;0.50;;;0.10;;
43803;SDS011;29430;52.924;-2.388;2022-08-06T21:32:12;0.30;;;0.10;;
43803;SDS011;29430;52.924;-2.388;2022-08-06T21:37:22;1.20;;;0.10;;
43803;SDS011;29430;52.924;-2.388;2022-08-06T21:42:35;0.30;;;0.10;;
43803;SDS011;29430;52.924;-2.388;2022-08-06T21:47:28;0.28;;;0.00;;
43803;SDS011;29430;52.924;-2.388;2022-08-06T21:52:37;1.42;;;0.20;;
43803;SDS011;29430;52.924;-2.388;2022-08-06T21:57:29;0.35;;;0.10;;
43803;SDS011;29430;52.924;-2.388;2022-08-06T22:02:39;0.38;;;0.10;;
43803;SDS011;29430;52.924;-2.388;2022-08-06T22:07:32;0.40;;;0.10;;
43803;SDS011;29430;52.924;-2.388;2022-08-06T22:12:44;0.60;;;0.10;;
43803;SDS011;29430;52.924;-2.388;2022-08-06T22:17:56;0.95;;;0.20;;
43803;SDS011;29430;52.924;-2.388;2022-08-06T22:22:54;0.80;;;0.27;;
43803;SDS011;29430;52.924;-2.388;2022-08-06T22:27:46;0.45;;;0.03;;
43803;SDS011;29430;52.924;-2.388;2022-08-06T22:32:44;0.75;;;0.20;;
43803;SDS011;29430;52.924;-2.388;2022-08-06T22:37:36;0.30;;;0.10;;
43803;SDS011;29430;52.924;-2.388;2022-08-06T22:42:50;0.88;;;0.10;;
43803;SDS011;29430;52.924;-2.388;2022-08-06T22:47:49;0.90;;;0.10;;
43803;SDS011;29430;52.924;-2.388;2022-08-06T22:52:46;0.30;;;0.10;;
43803;SDS011;29430;52.924;-2.388;2022-08-06T22:57:58;1.00;;;0.10;;
43803;SDS011;29430;52.924;-2.388;2022-08-06T23:03:10;2.47;;;0.10;;
43803;SDS011;29430;52.924;-2.388;2022-08-06T23:08:04;0.60;;;0.10;;
43803;SDS011;29430;52.924;-2.388;2022-08-06T23:12:56;0.43;;;0.10;;
43803;SDS011;29430;52.924;-2.388;2022-08-06T23:17:48;0.75;;;0.08;;
43803;SDS011;29430;52.924;-2.388;2022-08-06T23:22:47;0.68;;;0.10;;
43803;SDS011;29430;52.924;-2.388;2022-08-06T23:27:39;0.77;;;0.20;;
43803;SDS011;29430;52.924;-2.388;2022-08-06T23:32:40;0.38;;;0.10;;
43803;SDS011;29430;52.924;-2.388;2022-08-06T23:37:37;0.20;;;0.10;;
43803;SDS011;29430;52.924;-2.388;2022-08-06T23:42:30;0.50;;;0.20;;
43803;SDS011;29430;52.924;-2.388;2022-08-06T23:47:22;0.70;;;0.20;;
43803;SDS011;29430;52.924;-2.388;2022-08-06T23:52:34;0.30;;;0.10;;
43803;SDS011;29430;52.924;-2.388;2022-08-06T23:57:32;0.90;;;0.10;;
